AirNav   Bose Proflight Series 2 Wireless Aviation Headset
 
 913 users online  

PS10 Ohioport Heliport
Ohiopyle, Pennsylvania, USA

GOING TO OHIOPYLE?


FAA INFORMATION EFFECTIVE 07 NOVEMBER 2019

Location

FAA Identifier: PS10
Lat/Long: 39-53-07.2700N 079-30-27.1390W
39-53.121167N 079-30.452317W
39.8853528,-79.5075386
(estimated)
Elevation: 2018 ft. / 615 m (estimated)
Variation: 08W (1985)
From city: 1 mile SW of OHIOPYLE, PA
Time zone: UTC -5 (UTC -4 during Daylight Saving Time)
Zip code: 15470

Heliport Operations

Heliport use: Private use. Permission required prior to landing
Activation date: 04/1983
Control tower: no
ARTCC: CLEVELAND CENTER
FSS: ALTOONA FLIGHT SERVICE STATION
Attendance: APR-MAY 0900-1900
Wind indicator: yes
Segmented circle: no

Heliport Communications

WX AWOS-3 at VVS (8 nm NW): 133.325 (724-626-8745)
WX AWOS-3 at 2G4 (20 nm SE): 120.125 (301-746-8443)

Nearby radio navigation aids

VOR radial/distance  VOR name  Freq  Var
IHDr238/8.7INDIAN HEAD VORTAC108.2006W
MGWr045/25.6MORGANTOWN VOR/DME111.6005W
AGCr143/34.0ALLEGHENY VOR/DME110.0009W

 
NDB name  Hdg/Dist  Freq  Var  ID
CAMOR097/10.929908WVV ...- ...-
STOYSTOWN256/29.720910WSYS ... -.-- ...

Heliport Services

Runway Information

Helipad H1

Dimensions: 45 x 45 ft. / 14 x 14 m
Surface: asphalt, in fair condition
Operational restrictions: NO APP/DEP PATH FROM 5 TO 45 DEGREES.
Latitude: 39-53.121167N
Longitude: 079-30.452317W
Elevation: 2018.0 ft.
Traffic pattern: leftleft
Markings: none, in fair condition

Heliport Ownership and Management from official FAA records

Ownership: Privately-owned
Owner: PA DCNR, BUREAU OF FORESTRY
P.O. BOX 8552
HARRISBURG, PA 17105-8552
Phone (717) 787-5077
Manager: JASON WILLIAMS
P.O. BOX 8552
HARRISBURG, PA 17105-8552
Phone 717-787-5077

Heliport Operational Statistics

Aircraft based on the field: 1
Helicopters: 1
    

Additional Remarks

A52-H1 30' BLDG NORTH; 50' ANTENNA 150' NORTH.
FOR CD CTC CLARKSBURG APCH AT 304-842-2011, WHEN APCH CLSD CTC CLEVELAND ARTCC AT 440-774-0490.

Instrument Procedures

There are no published instrument procedures at PS10.

Some nearby airports with instrument procedures:

KVVS - Joseph A Hardy Connellsville Airport (8 nm NW)
2G4 - Garrett County Airport (20 nm SE)
KLBE - Arnold Palmer Regional Airport (24 nm N)
KMGW - Morgantown Municipal Airport-Walter L. Bill Hart Field (24 nm SW)
2G9 - Somerset County Airport (24 nm E)
 
Loc | Ops | Rwys | IFR | FBO | Links
Com | Nav | Svcs | Stats | Notes
Area around PS10 (Ohioport Heliport)
 
Road maps at: MapQuest Bing Google
 
Aerial photo
No photo
 
Sectional chart

 
Airport distance calculator
Flying to Ohioport Heliport? Find the distance to fly.

From to PS10

Sunrise and sunset
Times for 21-Nov-2019
 Local
(UTC-5)
 Zulu
(UTC)
Morning civil twilight06:4111:41
Sunrise07:1112:11
Sunset16:5721:57
Evening civil twilight17:2622:26

Current date and time
Zulu (UTC)  21-Nov-2019 13:26:30
Local (UTC-5)  21-Nov-2019 08:26:30
 
METAR
K2G4 
20nm SE 
211315Z AUTO 23005KT 10SM CLR 00/00 A3018 RMK AO1
KLBE 
23nm N 
211153Z 00000KT 3SM BR SKC M03/M03 A3024
KMGW 
24nm SW 
211253Z 00000KT 4SM BR CLR M02/M03 A3024 RMK AO2 SLP250 T10171028
K2G9 
24nm E 
211315Z AUTO 23006KT 7SM CLR 00/M01 A3020 RMK AO2
KP53 
24nm NW 
211256Z AUTO 18008KT 05/04 A2968 RMK AO1 SLP058 P0005 T00500039
KAGC 
34nm NW 
211253Z 16007KT 4SM BR CLR M02/M02 A3021 RMK AO2 SLP245 VIS E 2 T10171022
KAFJ 
38nm W 
211256Z AUTO 20003KT 4SM BR CLR M03/M03 A3023 RMK AO2 SLP250 T10281033 PWINO FZRANO
KCBE 
38nm SE 
211310Z AUTO 00000KT 4SM BR CLR M02/M02 A3032 RMK AO2 T10161022
TAF
KLBE 
23nm N 
211132Z 2112/2212 00000KT 4SM BR FEW025 BKN250 FM211400 18006KT P6SM BKN250 FM220000 21012KT P6SM OVC080 WS020/23040KT FM220400 23013KT P6SM VCSH OVC050 WS020/24040KT FM220900 27012G18KT P6SM -SHRA OVC015
KMGW 
24nm SW 
211132Z 2112/2212 18006KT P6SM BKN250 FM220000 20008KT P6SM OVC080 WS020/23040KT FM220300 22008KT P6SM VCSH OVC050 WS020/24040KT FM220800 27010KT P6SM -SHRA OVC015
NOTAMs
Click for the latest NOTAMs
NOTAMs are issued by the DoD/FAA and will open in a separate window not controlled by AirNav.

 

 
 

Would you like to see your business listed on this page?

 If your business provides an interesting product or service to pilots, flight crews, aircraft, or users of the Ohioport Heliport, you should consider listing it here.  To start the listing process, click on the button below
 
Add a business
 

Other Pages about Ohioport Heliport

Update a link
 
Copyright © AirNav, LLC. All rights reserved. Privacy Policy  Contact